createdAt,value
2023-04-18T00:00:49.344Z,15.57
2023-04-18T00:03:21.093Z,18.20
2023-04-18T00:05:49.808Z,18.23
2023-04-18T00:08:18.298Z,17.77
2023-04-18T00:10:46.730Z,17.23
2023-04-18T00:13:18.626Z,18.77
2023-04-18T00:15:47.271Z,18.67
2023-04-18T00:18:17.247Z,19.17
2023-04-18T00:20:49.221Z,18.60
2023-04-18T00:23:18.900Z,19.17
2023-04-18T00:25:47.300Z,19.80
2023-04-18T00:28:15.692Z,19.53
2023-04-18T00:30:44.096Z,18.13
2023-04-18T00:33:12.570Z,21.07
2023-04-18T00:35:41.035Z,21.87
2023-04-18T00:38:11.033Z,21.37
2023-04-18T00:40:39.471Z,20.93
2023-04-18T00:43:09.006Z,22.20
2023-04-18T00:45:37.819Z,21.67
2023-04-18T00:48:06.395Z,21.33
2023-04-18T00:50:34.806Z,22.47
2023-04-18T00:53:03.376Z,20.53
2023-04-18T00:55:33.276Z,21.50
2023-04-18T00:58:01.698Z,21.40
2023-04-18T01:00:30.065Z,21.10
2023-04-18T01:02:59.116Z,21.77
2023-04-18T01:05:28.259Z,22.13
2023-04-18T01:08:00.835Z,23.27
2023-04-18T01:10:30.284Z,20.50
2023-04-18T01:13:13.079Z,23.80
2023-04-18T01:15:42.516Z,23.47
2023-04-18T01:18:11.714Z,24.13
2023-04-18T01:20:42.477Z,22.00
2023-04-18T01:23:11.382Z,23.83
2023-04-18T01:25:41.370Z,25.67
2023-04-18T01:28:09.976Z,25.90
2023-04-18T01:30:38.898Z,26.00
2023-04-18T01:33:07.661Z,25.97
2023-04-18T01:35:36.534Z,25.73
2023-04-18T01:38:04.938Z,26.43
2023-04-18T01:40:33.298Z,28.17
2023-04-18T01:43:03.010Z,26.57
2023-04-18T01:45:31.394Z,28.17
2023-04-18T01:47:59.825Z,28.67
2023-04-18T01:50:28.255Z,26.20
2023-04-18T01:52:56.658Z,27.27
2023-04-18T01:55:25.069Z,27.57
2023-04-18T01:57:53.456Z,27.40
2023-04-18T02:00:23.715Z,28.77
2023-04-18T02:02:52.309Z,27.53
2023-04-18T02:05:22.657Z,27.53
2023-04-18T02:07:51.037Z,26.10
2023-04-18T02:10:19.513Z,27.43
2023-04-18T02:12:47.932Z,26.40
2023-04-18T02:15:16.410Z,27.20
2023-04-18T02:17:46.316Z,28.40
2023-04-18T02:20:15.738Z,26.53
2023-04-18T02:22:45.022Z,24.40
2023-04-18T02:25:13.409Z,26.33
2023-04-18T02:27:41.897Z,28.53
2023-04-18T02:30:10.832Z,27.53
2023-04-18T02:32:39.316Z,28.20
2023-04-18T02:35:09.672Z,25.93
2023-04-18T02:37:38.070Z,28.00
2023-04-18T02:40:07.306Z,27.00
2023-04-18T02:42:36.490Z,26.40
2023-04-18T02:45:04.901Z,29.80
2023-04-18T02:47:37.726Z,29.10
2023-04-18T02:50:13.718Z,29.17
2023-04-18T02:52:42.684Z,29.33
2023-04-18T02:55:11.279Z,30.43
2023-04-18T02:57:43.164Z,30.60
2023-04-18T03:00:12.094Z,28.23
2023-04-18T03:02:59.333Z,26.23
2023-04-18T03:05:43.017Z,28.67
2023-04-18T03:08:11.990Z,27.83
2023-04-18T03:10:41.369Z,30.23
2023-04-18T03:13:10.172Z,29.67
2023-04-18T03:15:39.511Z,29.97
2023-04-18T03:18:09.387Z,31.57
2023-04-18T03:20:43.366Z,30.77
2023-04-18T03:23:11.859Z,30.13
2023-04-18T03:25:40.989Z,29.63
2023-04-18T03:28:10.647Z,28.63
2023-04-18T03:30:39.047Z,28.97
2023-04-18T03:33:08.726Z,27.17
2023-04-18T03:35:37.719Z,28.17
2023-04-18T03:38:08.217Z,30.00
2023-04-18T03:40:39.777Z,29.90
2023-04-18T03:43:15.824Z,25.70
2023-04-18T03:45:47.269Z,29.20
2023-04-18T03:48:17.340Z,28.93
2023-04-18T03:50:47.406Z,28.23
2023-04-18T03:53:18.293Z,30.50
2023-04-18T03:55:46.705Z,30.17
2023-04-18T03:58:23.469Z,29.57
2023-04-18T04:00:52.315Z,27.13
2023-04-18T04:03:21.624Z,26.67
2023-04-18T04:05:50.145Z,28.87
2023-04-18T04:08:20.586Z,29.53
2023-04-18T04:10:49.057Z,29.00
2023-04-18T04:13:17.603Z,29.37
2023-04-18T04:15:46.308Z,31.63
2023-04-18T04:18:14.764Z,30.87
2023-04-18T04:20:45.849Z,31.37
2023-04-18T04:23:20.634Z,30.60
2023-04-18T04:25:49.426Z,29.83
2023-04-18T04:28:32.861Z,29.13
2023-04-18T04:31:08.464Z,28.83
2023-04-18T04:33:38.932Z,28.33
2023-04-18T04:36:16.673Z,30.30
2023-04-18T04:38:49.119Z,28.90
2023-04-18T04:41:18.990Z,26.83
2023-04-18T04:43:47.872Z,29.67
2023-04-18T04:46:21.002Z,30.40
2023-04-18T04:48:53.151Z,30.53
2023-04-18T04:51:21.517Z,31.13
2023-04-18T04:53:51.796Z,30.00
2023-04-18T04:56:20.705Z,29.33
2023-04-18T04:58:49.180Z,30.73
2023-04-18T05:01:24.972Z,30.13
2023-04-18T05:03:53.615Z,29.20
2023-04-18T05:06:22.837Z,28.03
2023-04-18T05:08:52.705Z,29.97
2023-04-18T05:11:21.108Z,28.70
2023-04-18T05:13:49.517Z,29.50
2023-04-18T05:16:17.993Z,31.13
2023-04-18T05:18:47.052Z,30.47
2023-04-18T05:21:16.074Z,30.23
2023-04-18T05:23:44.512Z,30.13
2023-04-18T05:26:14.366Z,28.93
2023-04-18T05:28:43.197Z,28.80
2023-04-18T05:31:19.859Z,31.10
2023-04-18T05:33:51.072Z,28.27
2023-04-18T05:36:19.686Z,30.07
2023-04-18T05:38:52.268Z,29.33
2023-04-18T05:41:23.567Z,28.57
2023-04-18T05:44:09.034Z,28.43
2023-04-18T05:47:00.374Z,28.67
2023-04-18T05:49:36.896Z,28.20
2023-04-18T05:52:07.268Z,28.27
2023-04-18T05:54:42.856Z,27.80
2023-04-18T05:57:18.016Z,28.57
2023-04-18T05:59:54.505Z,26.90
2023-04-18T06:02:23.416Z,29.00
2023-04-18T06:04:52.212Z,27.93
2023-04-18T06:07:21.751Z,28.83
2023-04-18T06:09:50.397Z,26.37
2023-04-18T06:12:20.372Z,27.33
2023-04-18T06:14:49.102Z,27.63
2023-04-18T06:17:17.852Z,26.63
2023-04-18T06:19:47.016Z,27.87
2023-04-18T06:22:15.587Z,26.93
2023-04-18T06:24:44.097Z,27.50
2023-04-18T06:27:24.185Z,26.37
2023-04-18T06:30:00.311Z,26.00
2023-04-18T06:32:28.950Z,27.13
2023-04-18T06:34:57.401Z,27.07
2023-04-18T06:37:26.027Z,26.13
2023-04-18T06:39:54.517Z,26.10
2023-04-18T06:42:23.378Z,26.00
2023-04-18T06:44:51.912Z,24.33
2023-04-18T06:47:22.637Z,25.33
2023-04-18T06:49:51.024Z,24.67
2023-04-18T06:52:19.582Z,25.00
2023-04-18T06:54:47.983Z,24.77
2023-04-18T06:57:16.459Z,23.80
2023-04-18T06:59:44.829Z,25.20
2023-04-18T07:02:13.358Z,23.70
2023-04-18T07:04:45.776Z,24.77
2023-04-18T07:07:14.451Z,23.57
2023-04-18T07:09:43.417Z,24.00
2023-04-18T07:12:11.983Z,24.80
2023-04-18T07:14:40.607Z,23.93
2023-04-18T07:17:16.415Z,24.10
2023-04-18T07:19:46.353Z,23.73
2023-04-18T07:22:14.903Z,25.17
2023-04-18T07:24:44.269Z,24.10
2023-04-18T07:27:13.079Z,22.43
2023-04-18T07:29:41.467Z,23.47
2023-04-18T07:32:10.690Z,23.30
2023-04-18T07:34:40.356Z,23.70
2023-04-18T07:37:10.713Z,22.00
2023-04-18T07:39:40.047Z,22.87
2023-04-18T07:42:08.628Z,22.10
2023-04-18T07:44:37.544Z,21.00
2023-04-18T07:47:11.077Z,20.73
2023-04-18T07:49:39.834Z,21.13
2023-04-18T07:52:10.066Z,21.53
2023-04-18T07:54:38.901Z,20.37
2023-04-18T07:57:34.393Z,19.83
2023-04-18T08:00:15.209Z,20.13
2023-04-18T08:02:46.206Z,19.13
2023-04-18T08:05:16.546Z,20.00
2023-04-18T08:07:46.848Z,19.87
2023-04-18T08:10:19.627Z,18.37
2023-04-18T08:12:49.227Z,17.83
2023-04-18T08:15:17.837Z,17.33
2023-04-18T08:17:49.202Z,16.83
2023-04-18T08:20:17.671Z,16.30
2023-04-18T08:23:05.209Z,16.13
2023-04-18T08:25:36.735Z,14.33
2023-04-18T08:28:05.318Z,14.13
2023-04-18T08:30:33.985Z,14.33
2023-04-18T08:33:03.019Z,14.07
2023-04-18T08:35:31.459Z,12.97
2023-04-18T08:38:02.918Z,13.40
2023-04-18T08:40:31.406Z,13.77
2023-04-18T08:43:01.298Z,13.03
2023-04-18T08:45:29.819Z,14.50
2023-04-18T08:48:01.583Z,14.67
2023-04-18T08:50:30.090Z,14.07
2023-04-18T08:52:58.606Z,15.73
2023-04-18T08:55:28.456Z,14.43
2023-04-18T08:57:57.060Z,13.60
2023-04-18T09:00:25.493Z,15.00
2023-04-18T09:02:57.005Z,15.03
2023-04-18T09:05:26.897Z,15.53
2023-04-18T09:07:56.471Z,15.87
2023-04-18T09:10:30.891Z,14.83
2023-04-18T09:13:01.226Z,16.13
2023-04-18T09:15:30.030Z,15.87
2023-04-18T09:17:59.397Z,16.00
2023-04-18T09:20:30.777Z,15.87
2023-04-18T09:23:00.793Z,15.43
2023-04-18T09:25:34.548Z,14.37
2023-04-18T09:28:03.850Z,16.13
2023-04-18T09:30:39.718Z,14.33
2023-04-18T09:33:10.157Z,15.13
2023-04-18T09:35:39.154Z,13.07
2023-04-18T09:38:08.393Z,14.13
2023-04-18T09:40:38.417Z,12.83
2023-04-18T09:43:20.378Z,12.40
2023-04-18T09:45:49.635Z,12.30
2023-04-18T09:48:18.464Z,12.67
2023-04-18T09:50:48.316Z,12.93
2023-04-18T09:53:20.759Z,11.63
2023-04-18T09:55:54.947Z,11.30
2023-04-18T09:58:27.163Z,11.70
2023-04-18T10:00:56.166Z,10.63
2023-04-18T10:03:29.738Z,9.90
2023-04-18T10:05:58.332Z,10.30
2023-04-18T10:08:27.369Z,11.00
2023-04-18T10:10:58.719Z,10.70
2023-04-18T10:13:28.336Z,10.83
2023-04-18T10:15:57.486Z,10.67
2023-04-18T10:18:26.249Z,10.93
2023-04-18T10:21:03.194Z,10.57
2023-04-18T10:23:39.099Z,11.77
2023-04-18T10:26:09.306Z,12.77
2023-04-18T10:28:56.942Z,12.53
2023-04-18T10:31:25.986Z,13.40
2023-04-18T10:34:04.512Z,13.43
2023-04-18T10:36:33.834Z,12.30
2023-04-18T10:39:04.301Z,10.80
2023-04-18T10:41:34.769Z,10.73
2023-04-18T10:44:22.432Z,11.33
2023-04-18T10:47:15.094Z,12.30
2023-04-18T10:49:54.755Z,11.70
2023-04-18T10:52:23.347Z,12.50
2023-04-18T10:54:55.242Z,11.30
2023-04-18T10:57:26.506Z,12.60
2023-04-18T10:59:55.179Z,11.67
2023-04-18T11:02:28.912Z,11.63
2023-04-18T11:04:58.188Z,10.90
2023-04-18T11:07:36.779Z,10.40
2023-04-18T11:10:05.389Z,10.77
2023-04-18T11:12:36.391Z,11.17
2023-04-18T11:15:11.349Z,9.97
2023-04-18T11:17:41.284Z,9.93
2023-04-18T11:20:11.113Z,9.70
2023-04-18T11:22:45.859Z,9.90
2023-04-18T11:25:14.433Z,9.13
2023-04-18T11:27:45.786Z,8.40
2023-04-18T11:30:15.627Z,9.37
2023-04-18T11:32:44.275Z,10.03
2023-04-18T11:35:13.349Z,10.33
2023-04-18T11:37:42.257Z,9.27
2023-04-18T11:40:11.827Z,9.37
2023-04-18T11:42:41.172Z,9.83
2023-04-18T11:45:15.724Z,9.13
2023-04-18T11:47:45.726Z,9.27
2023-04-18T11:50:14.972Z,8.77
2023-04-18T11:52:44.104Z,8.93
2023-04-18T11:55:17.952Z,9.37
2023-04-18T11:57:57.238Z,9.43
2023-04-18T12:00:34.564Z,9.80
2023-04-18T12:03:06.052Z,10.30
2023-04-18T12:05:36.014Z,10.33
2023-04-18T12:08:08.273Z,10.30
2023-04-18T12:10:37.318Z,11.07
2023-04-18T12:13:08.376Z,9.80
2023-04-18T12:15:39.834Z,9.83
2023-04-18T12:18:09.450Z,10.30
2023-04-18T12:20:38.839Z,11.17
2023-04-18T12:23:07.866Z,10.03
2023-04-18T12:25:36.666Z,10.43
2023-04-18T12:28:05.971Z,10.50
2023-04-18T12:30:37.583Z,11.13
2023-04-18T12:33:09.224Z,9.93
2023-04-18T12:35:37.612Z,9.97
2023-04-18T12:38:06.896Z,10.57
2023-04-18T12:40:35.395Z,10.00
2023-04-18T12:43:04.134Z,10.20
2023-04-18T12:45:32.795Z,10.00
2023-04-18T12:48:01.397Z,10.50
2023-04-18T12:50:31.273Z,9.17
2023-04-18T12:53:00.529Z,8.57
2023-04-18T12:55:29.644Z,9.30
2023-04-18T12:57:58.577Z,8.53
2023-04-18T13:00:27.985Z,8.30
2023-04-18T13:02:56.662Z,8.20
2023-04-18T13:05:27.332Z,7.70
2023-04-18T13:08:15.430Z,8.33
2023-04-18T13:10:45.669Z,8.23
2023-04-18T13:13:14.188Z,8.00
2023-04-18T13:15:42.917Z,8.40
2023-04-18T13:18:11.674Z,8.17
2023-04-18T13:20:40.220Z,8.10
2023-04-18T13:23:10.174Z,8.00
2023-04-18T13:25:38.657Z,8.43
2023-04-18T13:28:07.512Z,8.50
2023-04-18T13:30:36.775Z,8.40
2023-04-18T13:33:05.649Z,8.77
2023-04-18T13:35:34.226Z,9.00
2023-04-18T13:38:02.638Z,8.70
2023-04-18T13:40:33.555Z,9.00
2023-04-18T13:43:02.705Z,9.73
2023-04-18T13:45:33.464Z,8.37
2023-04-18T13:48:02.117Z,7.60
2023-04-18T13:50:30.929Z,7.93
2023-04-18T13:52:59.693Z,7.93
2023-04-18T13:55:28.560Z,7.70
2023-04-18T13:57:58.400Z,7.57
2023-04-18T14:00:26.996Z,6.97
2023-04-18T14:02:57.520Z,7.90
2023-04-18T14:05:26.125Z,7.70
2023-04-18T14:07:56.241Z,7.50
2023-04-18T14:10:24.810Z,7.73
2023-04-18T14:12:53.283Z,7.30
2023-04-18T14:15:23.146Z,7.77
2023-04-18T14:17:51.749Z,7.63
2023-04-18T14:20:20.425Z,7.57
2023-04-18T14:22:50.410Z,7.73
2023-04-18T14:25:20.021Z,7.43
2023-04-18T14:27:49.073Z,7.10
2023-04-18T14:30:17.479Z,7.07
2023-04-18T14:32:47.441Z,6.73
2023-04-18T14:35:16.034Z,6.87
2023-04-18T14:37:44.553Z,7.20
2023-04-18T14:40:13.488Z,7.17
2023-04-18T14:42:42.196Z,7.40
2023-04-18T14:45:12.045Z,8.33
2023-04-18T14:47:40.592Z,9.57
2023-04-18T14:50:12.297Z,10.03
2023-04-18T14:52:41.069Z,11.00
2023-04-18T14:55:10.794Z,11.23
2023-04-18T14:57:39.930Z,11.73
2023-04-18T15:00:10.410Z,11.33
2023-04-18T15:02:39.195Z,11.47
2023-04-18T15:05:08.597Z,10.90
2023-04-18T15:07:38.616Z,11.57
2023-04-18T15:10:07.668Z,10.87
2023-04-18T15:12:36.201Z,11.30
2023-04-18T15:15:04.733Z,10.70
2023-04-18T15:17:33.345Z,10.23
2023-04-18T15:20:01.888Z,11.80
2023-04-18T15:22:30.638Z,11.13
2023-04-18T15:25:01.989Z,11.77
2023-04-18T15:27:30.587Z,11.70
2023-04-18T15:29:59.022Z,11.47
2023-04-18T15:32:27.989Z,12.50
2023-04-18T15:34:56.536Z,11.87
2023-04-18T15:37:25.037Z,11.83
2023-04-18T15:39:53.547Z,11.17
2023-04-18T15:42:23.459Z,11.70
2023-04-18T15:44:52.371Z,12.27
2023-04-18T15:47:21.573Z,11.20
2023-04-18T15:49:50.066Z,12.17
2023-04-18T15:52:18.631Z,11.97
2023-04-18T15:54:47.055Z,12.53
2023-04-18T15:57:15.782Z,11.83
2023-04-18T15:59:45.662Z,11.93
2023-04-18T16:02:14.523Z,13.40
2023-04-18T16:04:43.001Z,12.20
2023-04-18T16:07:11.515Z,11.80
2023-04-18T16:09:40.055Z,12.53
2023-04-18T16:12:09.070Z,11.73
2023-04-18T16:14:37.676Z,12.77
2023-04-18T16:17:07.926Z,11.37
2023-04-18T16:19:38.315Z,11.93
2023-04-18T16:22:07.431Z,11.63
2023-04-18T16:24:44.194Z,12.47
2023-04-18T16:27:12.895Z,12.23
2023-04-18T16:29:41.299Z,12.13
2023-04-18T16:32:11.535Z,13.30
2023-04-18T16:34:40.004Z,12.30
2023-04-18T16:37:08.428Z,12.40
2023-04-18T16:39:36.884Z,12.87
2023-04-18T16:42:05.493Z,12.90
2023-04-18T16:44:33.889Z,13.40
2023-04-18T16:47:05.148Z,10.80
2023-04-18T16:49:35.018Z,10.87
2023-04-18T16:52:03.575Z,10.43
2023-04-18T16:54:32.016Z,11.73
2023-04-18T16:57:00.937Z,10.07
2023-04-18T16:59:29.438Z,10.63
2023-04-18T17:01:58.188Z,10.60
2023-04-18T17:04:27.142Z,11.77
2023-04-18T17:06:57.468Z,11.10
2023-04-18T17:09:26.554Z,12.03
2023-04-18T17:11:55.223Z,12.23
2023-04-18T17:14:23.722Z,12.00
2023-04-18T17:16:53.735Z,12.17
2023-04-18T17:19:22.738Z,12.33
2023-04-18T17:21:51.636Z,12.43
2023-04-18T17:24:22.560Z,12.33
2023-04-18T17:26:52.195Z,12.57
2023-04-18T17:29:22.726Z,12.83
2023-04-18T17:31:54.709Z,12.97
2023-04-18T17:34:23.351Z,13.77
2023-04-18T17:36:51.972Z,12.77
2023-04-18T17:39:22.611Z,12.90
2023-04-18T17:41:51.246Z,13.07
2023-04-18T17:44:19.647Z,14.20
2023-04-18T17:46:49.992Z,13.90
2023-04-18T17:49:19.032Z,12.87
2023-04-18T17:51:48.252Z,13.57
2023-04-18T17:54:17.353Z,12.90
2023-04-18T17:56:48.254Z,12.20
2023-04-18T17:59:17.214Z,11.63
2023-04-18T18:01:46.602Z,12.07
2023-04-18T18:04:16.490Z,11.80
2023-04-18T18:06:56.376Z,10.47
2023-04-18T18:09:25.282Z,11.53
2023-04-18T18:11:56.098Z,11.67
2023-04-18T18:14:25.141Z,11.17
2023-04-18T18:16:53.790Z,10.43
2023-04-18T18:19:22.844Z,10.10
2023-04-18T18:21:51.903Z,11.93
2023-04-18T18:24:20.548Z,11.40
2023-04-18T18:26:51.506Z,12.07
2023-04-18T18:29:21.588Z,12.27
2023-04-18T18:31:50.481Z,12.17
2023-04-18T18:34:19.929Z,12.53
2023-04-18T18:36:48.686Z,10.47
2023-04-18T18:39:17.725Z,11.03
2023-04-18T18:41:46.702Z,11.30
2023-04-18T18:44:15.795Z,11.23
2023-04-18T18:46:46.051Z,10.83
2023-04-18T18:49:16.458Z,10.83
2023-04-18T18:51:45.165Z,11.00
2023-04-18T18:54:13.703Z,12.23
2023-04-18T18:56:42.745Z,11.70
2023-04-18T18:59:11.234Z,10.63
2023-04-18T19:01:39.752Z,11.07
2023-04-18T19:04:09.794Z,11.43
2023-04-18T19:06:38.818Z,11.90
2023-04-18T19:09:07.327Z,12.50
2023-04-18T19:11:35.821Z,12.63
2023-04-18T19:14:04.521Z,12.90
2023-04-18T19:16:34.184Z,11.97
2023-04-18T19:19:02.765Z,13.77
2023-04-18T19:21:32.808Z,13.87
2023-04-18T19:24:01.388Z,13.13
2023-04-18T19:26:29.956Z,13.27
2023-04-18T19:28:58.365Z,12.90
2023-04-18T19:31:26.939Z,14.37
2023-04-18T19:33:55.380Z,12.80
2023-04-18T19:36:23.858Z,13.00
2023-04-18T19:38:53.625Z,13.57
2023-04-18T19:41:22.063Z,13.23
2023-04-18T19:43:50.700Z,13.60
2023-04-18T19:46:19.223Z,13.93
2023-04-18T19:48:47.640Z,14.00
2023-04-18T19:51:16.071Z,13.60
2023-04-18T19:53:44.711Z,14.03
2023-04-18T19:56:15.019Z,12.83
2023-04-18T19:58:46.732Z,13.03
2023-04-18T20:01:15.818Z,12.57
2023-04-18T20:03:44.719Z,12.93
2023-04-18T20:06:13.321Z,12.90
2023-04-18T20:08:42.693Z,13.37
2023-04-18T20:11:12.482Z,12.83
2023-04-18T20:13:42.636Z,13.17
2023-04-18T20:16:12.271Z,12.60
2023-04-18T20:18:41.719Z,13.00
2023-04-18T20:21:10.995Z,13.17
2023-04-18T20:23:41.749Z,13.33
2023-04-18T20:26:10.329Z,12.97
2023-04-18T20:28:38.725Z,13.90
2023-04-18T20:31:08.579Z,13.50
2023-04-18T20:33:37.924Z,14.27
2023-04-18T20:36:07.509Z,13.17
2023-04-18T20:38:36.924Z,13.33
2023-04-18T20:41:05.375Z,14.53
2023-04-18T20:43:37.376Z,14.03
2023-04-18T20:46:07.002Z,13.07
2023-04-18T20:48:36.891Z,12.73
2023-04-18T20:51:05.352Z,13.60
2023-04-18T20:53:33.749Z,13.50
2023-04-18T20:56:03.041Z,13.47
2023-04-18T20:58:31.567Z,13.67
2023-04-18T21:01:00.018Z,12.73
2023-04-18T21:03:29.234Z,12.83
2023-04-18T21:05:59.617Z,12.30
2023-04-18T21:08:28.089Z,12.57
2023-04-18T21:10:56.610Z,11.07
2023-04-18T21:13:24.994Z,12.53
2023-04-18T21:15:53.496Z,12.10
2023-04-18T21:18:22.028Z,11.30
2023-04-18T21:20:50.503Z,11.27
2023-04-18T21:23:20.506Z,11.43
2023-04-18T21:25:49.054Z,11.70
2023-04-18T21:28:17.553Z,10.73
2023-04-18T21:30:46.487Z,11.00
2023-04-18T21:33:15.219Z,11.67
2023-04-18T21:35:43.911Z,12.80
2023-04-18T21:38:12.321Z,11.77
2023-04-18T21:40:42.238Z,11.40
2023-04-18T21:43:11.307Z,12.37
2023-04-18T21:45:39.744Z,12.20
2023-04-18T21:48:10.797Z,11.70
2023-04-18T21:50:39.219Z,12.40
2023-04-18T21:53:07.963Z,12.73
2023-04-18T21:55:36.347Z,12.43
2023-04-18T21:58:06.110Z,13.47
2023-04-18T22:00:34.547Z,12.53
2023-04-18T22:03:03.007Z,12.10
2023-04-18T22:05:31.573Z,12.10
2023-04-18T22:07:59.943Z,12.40
2023-04-18T22:10:28.367Z,13.43
2023-04-18T22:12:56.846Z,12.27
2023-04-18T22:15:27.527Z,13.00
2023-04-18T22:17:56.204Z,12.97
2023-04-18T22:20:25.581Z,13.10
2023-04-18T22:22:54.464Z,13.17
2023-04-18T22:25:22.947Z,12.93
2023-04-18T22:27:51.340Z,13.20
2023-04-18T22:30:19.821Z,13.20
2023-04-18T22:32:49.695Z,12.40
2023-04-18T22:35:18.381Z,12.27
2023-04-18T22:37:46.789Z,11.77
2023-04-18T22:40:16.528Z,12.50
2023-04-18T22:42:45.026Z,12.47
2023-04-18T22:45:13.655Z,13.13
2023-04-18T22:47:42.542Z,12.20
2023-04-18T22:50:12.799Z,12.37
2023-04-18T22:52:41.229Z,11.70
2023-04-18T22:55:09.982Z,12.90
2023-04-18T22:57:39.926Z,11.60
2023-04-18T23:00:10.088Z,13.27
2023-04-18T23:02:38.794Z,12.80
2023-04-18T23:05:08.112Z,13.97
2023-04-18T23:07:38.086Z,13.17
2023-04-18T23:10:08.131Z,12.70
2023-04-18T23:12:36.809Z,13.47
2023-04-18T23:15:05.501Z,13.10
2023-04-18T23:17:34.902Z,12.30
2023-04-18T23:20:04.686Z,12.27
2023-04-18T23:22:33.050Z,12.87
2023-04-18T23:25:02.882Z,12.90
2023-04-18T23:27:31.331Z,14.87
2023-04-18T23:29:59.792Z,13.37
2023-04-18T23:32:28.620Z,12.60
2023-04-18T23:34:57.143Z,14.03
2023-04-18T23:37:25.738Z,13.60
2023-04-18T23:39:54.428Z,14.27
2023-04-18T23:42:24.149Z,13.73
2023-04-18T23:44:52.612Z,14.23
2023-04-18T23:47:21.502Z,14.73
2023-04-18T23:49:50.178Z,15.33
2023-04-18T23:52:18.615Z,14.60
2023-04-18T23:54:46.972Z,14.37
2023-04-18T23:57:15.576Z,15.03
2023-04-18T23:59:45.420Z,15.50
